Time;durP1;ratioP1;P1;durP2;ratioP2;P2;SDS_P1;SDS_P2;PMS_P1;PMS_P2;Temp;Humidity;BMP_temperature;BMP_pressure;BME280_temperature;BME280_humidity;BME280_pressure;Samples;Min_cycle;Max_cycle;Signal;HPM_P1;HPM_P2
2022/08/18 00:02:28;;;;;;;5.60;5.20;;;;;;;20.80;100.00;99895.78;5021834;28;20204;-78
2022/08/18 00:04:55;;;;;;;6.03;5.43;;;;;;;20.77;100.00;99897.75;5031897;28;20185;-77
2022/08/18 00:07:23;;;;;;;6.53;5.77;;;;;;;20.74;100.00;99892.63;5021253;28;20197;-79
2022/08/18 00:09:49;;;;;;;5.70;5.30;;;;;;;20.68;100.00;99896.44;5024870;28;21092;-78
2022/08/18 00:12:22;;;;;;;5.80;5.40;;;;;;;20.66;100.00;99887.81;5028327;28;20195;-79
2022/08/18 00:14:48;;;;;;;5.53;5.13;;;;;;;20.61;100.00;99885.44;5042293;28;20197;-78
2022/08/18 00:17:14;;;;;;;5.53;5.13;;;;;;;20.56;100.00;99887.47;5033765;28;20190;-77
2022/08/18 00:19:40;;;;;;;6.60;6.10;;;;;;;20.53;100.00;99887.66;5039281;28;20218;-79
2022/08/18 00:22:06;;;;;;;5.93;5.53;;;;;;;20.52;100.00;99886.81;5028485;28;20952;-79
2022/08/18 00:24:32;;;;;;;5.47;5.07;;;;;;;20.52;100.00;99892.06;5028046;28;20206;-78
2022/08/18 00:26:57;;;;;;;5.67;5.27;;;;;;;20.50;100.00;99891.31;5029460;28;20368;-79
2022/08/18 00:29:23;;;;;;;5.97;5.50;;;;;;;20.48;100.00;99898.44;5020209;28;20236;-79
2022/08/18 00:31:49;;;;;;;5.90;5.50;;;;;;;20.46;100.00;99896.81;5028265;28;20550;-78
2022/08/18 00:34:14;;;;;;;6.37;5.87;;;;;;;20.44;100.00;99894.28;5031599;28;20245;-78
2022/08/18 00:36:40;;;;;;;5.73;5.20;;;;;;;20.44;100.00;99901.31;5027232;28;20274;-78
2022/08/18 00:39:05;;;;;;;5.97;5.50;;;;;;;20.43;100.00;99900.47;5021544;28;20601;-78
2022/08/18 00:41:31;;;;;;;6.77;6.17;;;;;;;20.42;100.00;99898.75;5025220;28;20187;-79
2022/08/18 00:43:59;;;;;;;6.30;5.80;;;;;;;20.39;100.00;99898.97;5028728;28;20643;-79
2022/08/18 00:46:29;;;;;;;6.50;5.90;;;;;;;20.37;100.00;99892.94;5026362;28;20218;-79
2022/08/18 00:48:56;;;;;;;6.10;5.60;;;;;;;20.33;100.00;99908.03;5026905;28;20261;-78
2022/08/18 00:51:37;;;;;;;5.93;5.53;;;;;;;20.30;100.00;99904.72;5025770;28;20222;-79
2022/08/18 00:54:21;;;;;;;6.60;6.00;;;;;;;20.29;100.00;99903.00;5036925;28;20270;-80
2022/08/18 00:56:50;;;;;;;5.73;5.33;;;;;;;20.23;100.00;99907.69;5023887;28;20574;-79
2022/08/18 00:59:36;;;;;;;6.50;6.00;;;;;;;20.23;100.00;99902.44;5032455;28;20192;-80
2022/08/18 01:02:05;;;;;;;5.80;5.40;;;;;;;20.19;100.00;99898.28;5038019;28;20206;-78
2022/08/18 01:04:42;;;;;;;6.93;6.43;;;;;;;20.19;100.00;99900.06;5028438;28;20264;-80
2022/08/18 01:07:14;;;;;;;6.30;5.80;;;;;;;20.17;100.00;99894.06;5027496;28;20682;-79
2022/08/18 01:09:40;;;;;;;6.60;6.10;;;;;;;20.16;100.00;99889.72;5021581;28;20197;-79
2022/08/18 01:12:07;;;;;;;6.00;5.60;;;;;;;20.12;100.00;99880.31;5038999;28;20273;-79
2022/08/18 01:14:33;;;;;;;6.63;6.10;;;;;;;20.09;100.00;99886.59;5029250;28;20205;-79
2022/08/18 01:22:46;;;;;;;6.50;6.00;;;;;;;20.00;100.00;99898.47;5020164;28;20825;-79
2022/08/18 01:27:57;;;;;;;6.67;6.17;;;;;;;20.00;100.00;99908.09;5028615;28;20187;-80
2022/08/18 01:30:24;;;;;;;6.10;5.70;;;;;;;19.99;100.00;99904.63;5032325;28;20190;-77
2022/08/18 01:32:51;;;;;;;7.10;6.50;;;;;;;19.99;100.00;99902.00;5022685;28;20299;-77
2022/08/18 01:35:19;;;;;;;6.63;6.13;;;;;;;19.97;100.00;99906.50;5034849;28;20182;-77
2022/08/18 01:37:50;;;;;;;6.70;6.20;;;;;;;19.99;100.00;99909.03;5029382;28;20184;-78
2022/08/18 01:40:19;;;;;;;6.13;5.73;;;;;;;19.99;100.00;99915.16;5028174;28;20181;-79
2022/08/18 01:42:45;;;;;;;6.40;5.90;;;;;;;20.00;100.00;99905.47;5021369;28;20214;-77
2022/08/18 01:45:13;;;;;;;6.20;5.77;;;;;;;19.99;100.00;99899.38;5030002;28;20672;-77
2022/08/18 01:47:39;;;;;;;6.47;5.93;;;;;;;19.98;100.00;99897.69;5021994;28;20197;-77
2022/08/18 01:50:06;;;;;;;5.73;5.27;;;;;;;19.97;100.00;99892.50;5024383;28;20201;-77
2022/08/18 01:52:32;;;;;;;6.17;5.77;;;;;;;19.97;100.00;99888.13;5026818;28;20187;-79
2022/08/18 01:54:58;;;;;;;6.10;5.70;;;;;;;19.98;100.00;99894.19;5026488;28;20189;-78
2022/08/18 01:57:24;;;;;;;5.90;5.50;;;;;;;19.98;100.00;99888.94;5028995;28;20296;-77
2022/08/18 01:59:50;;;;;;;6.40;5.93;;;;;;;19.98;100.00;99888.94;5026090;28;20187;-76
2022/08/18 02:02:23;;;;;;;6.20;5.80;;;;;;;19.96;100.00;99894.28;5032108;28;20210;-79
2022/08/18 02:04:53;;;;;;;5.90;5.50;;;;;;;19.96;100.00;99886.41;5022390;28;20198;-78
2022/08/18 02:07:19;;;;;;;6.30;5.80;;;;;;;19.93;100.00;99889.19;5028538;28;20689;-77
2022/08/18 02:09:45;;;;;;;7.00;6.50;;;;;;;19.92;100.00;99892.75;5028854;28;20611;-79
2022/08/18 02:12:11;;;;;;;6.00;5.60;;;;;;;19.88;100.00;99892.09;5024912;28;20182;-77
2022/08/18 02:14:36;;;;;;;6.53;6.03;;;;;;;19.87;100.00;99885.13;5046910;28;20213;-78
2022/08/18 02:17:04;;;;;;;6.53;6.03;;;;;;;19.86;100.00;99891.28;5029221;28;20288;-77
2022/08/18 02:19:42;;;;;;;6.47;5.97;;;;;;;19.87;100.00;99881.66;5022561;28;20205;-79
2022/08/18 02:22:11;;;;;;;6.13;5.73;;;;;;;19.87;100.00;99882.50;5031534;28;20228;-77
2022/08/18 02:24:37;;;;;;;6.00;5.60;;;;;;;19.85;100.00;99884.34;5025347;28;20837;-77
2022/08/18 02:27:02;;;;;;;6.17;5.67;;;;;;;19.84;100.00;99881.81;5026236;28;20187;-79
2022/08/18 02:29:28;;;;;;;5.77;5.30;;;;;;;19.83;100.00;99872.22;5029938;28;20186;-79
2022/08/18 02:31:53;;;;;;;5.97;5.50;;;;;;;19.79;100.00;99864.50;5027115;28;20182;-78
2022/08/18 02:34:19;;;;;;;5.30;5.00;;;;;;;19.79;100.00;99872.38;5023331;28;20208;-77
2022/08/18 02:36:44;;;;;;;6.13;5.70;;;;;;;19.79;100.00;99867.13;5048475;28;20198;-78
2022/08/18 02:39:10;;;;;;;6.10;5.60;;;;;;;19.78;100.00;99862.81;5023772;28;20192;-78
2022/08/18 02:41:35;;;;;;;6.27;5.77;;;;;;;19.78;100.00;99859.34;5026043;28;20194;-78
2022/08/18 02:44:01;;;;;;;6.13;5.63;;;;;;;19.75;100.00;99860.34;5022457;28;20211;-79
2022/08/18 02:46:27;;;;;;;5.93;5.53;;;;;;;19.75;100.00;99856.88;5023091;28;20192;-79
2022/08/18 02:48:53;;;;;;;6.53;6.03;;;;;;;19.72;100.00;99857.91;5030093;28;20535;-77
2022/08/18 02:51:18;;;;;;;5.83;5.40;;;;;;;19.70;100.00;99862.41;5034933;28;20218;-77
2022/08/18 02:53:46;;;;;;;6.20;5.70;;;;;;;19.69;100.00;99852.81;5035048;28;20218;-77
2022/08/18 02:56:23;;;;;;;6.43;5.90;;;;;;;19.68;100.00;99850.25;5022152;28;20182;-78
2022/08/18 02:58:52;;;;;;;5.53;5.13;;;;;;;19.67;100.00;99846.81;5029057;28;20188;-78
2022/08/18 03:01:19;;;;;;;6.53;6.03;;;;;;;19.68;100.00;99847.63;5023524;28;20189;-79
2022/08/18 03:03:44;;;;;;;6.43;6.03;;;;;;;19.66;100.00;99845.09;5025994;28;20598;-78
2022/08/18 03:06:10;;;;;;;6.00;5.60;;;;;;;19.66;100.00;99852.97;5023728;28;20192;-77
2022/08/18 03:08:35;;;;;;;6.13;5.73;;;;;;;19.65;100.00;99844.28;5020781;28;20189;-78
2022/08/18 03:11:00;;;;;;;6.00;5.57;;;;;;;19.67;100.00;99840.69;5033077;28;20188;-77
2022/08/18 03:13:26;;;;;;;6.70;6.20;;;;;;;19.67;100.00;99845.94;5030995;28;20214;-79
2022/08/18 03:15:52;;;;;;;5.97;5.47;;;;;;;19.68;100.00;99834.50;5029440;28;20201;-78
2022/08/18 03:18:17;;;;;;;6.07;5.67;;;;;;;19.68;100.00;99838.00;5027516;28;20198;-78
2022/08/18 03:20:44;;;;;;;5.90;5.50;;;;;;;19.69;100.00;99844.94;5019535;28;20229;-79
2022/08/18 03:23:10;;;;;;;5.77;5.37;;;;;;;19.69;100.00;99846.72;5033199;28;20225;-78
2022/08/18 03:25:41;;;;;;;6.00;5.60;;;;;;;19.70;100.00;99849.28;5025860;28;20310;-78
2022/08/18 03:28:07;;;;;;;6.63;6.23;;;;;;;19.71;100.00;99842.22;5028185;28;20194;-78
2022/08/18 03:30:32;;;;;;;5.73;5.33;;;;;;;19.71;100.00;99837.84;5024378;28;20686;-77
2022/08/18 03:32:57;;;;;;;5.97;5.57;;;;;;;19.72;100.00;99828.19;5025988;28;20249;-77
2022/08/18 03:35:23;;;;;;;6.27;5.87;;;;;;;19.73;100.00;99830.72;5023059;28;20194;-78
2022/08/18 03:37:48;;;;;;;6.17;5.77;;;;;;;19.75;100.00;99830.63;5022751;28;20197;-77
2022/08/18 03:40:13;;;;;;;6.83;6.33;;;;;;;19.76;100.00;99835.78;5024610;28;20222;-78
2022/08/18 03:42:39;;;;;;;6.47;6.07;;;;;;;19.76;100.00;99835.78;5027002;28;20215;-77
2022/08/18 03:45:05;;;;;;;6.10;5.70;;;;;;;19.78;100.00;99830.47;5023873;28;20195;-77
2022/08/18 03:47:31;;;;;;;6.13;5.73;;;;;;;19.78;100.00;99831.31;5017447;28;20719;-78
2022/08/18 03:49:56;;;;;;;6.70;6.30;;;;;;;19.79;100.00;99834.78;5024211;28;20212;-78
2022/08/18 03:52:22;;;;;;;6.27;5.77;;;;;;;19.78;100.00;99833.94;5023216;28;20661;-77
2022/08/18 03:54:47;;;;;;;6.60;6.10;;;;;;;19.79;100.00;99838.25;5030702;28;20291;-78
2022/08/18 03:57:13;;;;;;;6.60;6.10;;;;;;;19.78;100.00;99835.72;5024834;28;20241;-78
2022/08/18 03:59:40;;;;;;;7.03;6.40;;;;;;;19.78;100.00;99847.06;5021050;28;20931;-78
2022/08/18 04:02:06;;;;;;;7.20;6.70;;;;;;;19.77;100.00;99840.13;5025163;28;20217;-76
2022/08/18 04:04:32;;;;;;;6.40;5.97;;;;;;;19.79;100.00;99840.88;5024409;28;20280;-77
2022/08/18 04:07:03;;;;;;;6.87;6.27;;;;;;;19.80;100.00;99834.69;5024912;28;20188;-77
2022/08/18 04:09:31;;;;;;;7.27;6.67;;;;;;;19.80;100.00;99836.50;5043127;28;20199;-79
2022/08/18 04:11:57;;;;;;;7.03;6.53;;;;;;;19.79;100.00;99833.00;5022903;28;20658;-78
2022/08/18 04:14:29;;;;;;;7.40;6.80;;;;;;;19.79;100.00;99838.25;5030399;28;20208;-78
2022/08/18 04:16:56;;;;;;;7.00;6.50;;;;;;;19.80;100.00;99844.38;5023530;28;20189;-78
2022/08/18 04:19:22;;;;;;;6.20;5.70;;;;;;;19.79;100.00;99838.25;5033413;28;20193;-78
2022/08/18 04:21:50;;;;;;;6.23;5.83;;;;;;;19.79;100.00;99840.03;5030039;28;20195;-77
2022/08/18 04:24:16;;;;;;;6.53;6.03;;;;;;;19.80;100.00;99841.75;5026355;28;20201;-78
2022/08/18 04:26:45;;;;;;;6.17;5.77;;;;;;;19.80;100.00;99847.00;5023705;28;20194;-78
2022/08/18 04:29:12;;;;;;;6.03;5.60;;;;;;;19.80;100.00;99839.13;5034364;28;20223;-78
2022/08/18 04:31:37;;;;;;;6.70;6.20;;;;;;;19.81;100.00;99856.56;5043544;28;20190;-77
2022/08/18 04:34:03;;;;;;;6.37;5.97;;;;;;;19.81;100.00;99851.31;5027962;28;20208;-77
2022/08/18 04:36:32;;;;;;;6.53;6.03;;;;;;;19.82;100.00;99857.41;5033290;28;20293;-79
2022/08/18 04:38:58;;;;;;;7.43;6.80;;;;;;;19.84;100.00;99864.25;5023774;28;20219;-80
2022/08/18 04:41:26;;;;;;;6.57;6.13;;;;;;;19.85;100.00;99865.13;5027900;28;20185;-79
2022/08/18 04:43:53;;;;;;;7.30;6.80;;;;;;;19.84;100.00;99876.56;5028249;28;20222;-78
2022/08/18 04:46:18;;;;;;;6.83;6.40;;;;;;;19.85;100.00;99873.81;5025012;28;20198;-78
2022/08/18 04:48:44;;;;;;;6.97;6.47;;;;;;;19.84;100.00;99876.56;5027668;28;20194;-78
2022/08/18 04:51:12;;;;;;;7.27;6.70;;;;;;;19.81;100.00;99885.44;5030698;28;20199;-79
2022/08/18 04:53:44;;;;;;;7.40;6.90;;;;;;;19.79;100.00;99890.78;5037744;28;20208;-78
2022/08/18 04:56:32;;;;;;;7.37;6.67;;;;;;;19.77;100.00;99884.75;5033971;28;20286;-78
2022/08/18 04:59:10;;;;;;;8.07;7.47;;;;;;;19.76;100.00;99884.84;5042618;28;20177;-77
2022/08/18 05:01:44;;;;;;;6.73;6.30;;;;;;;19.78;100.00;99901.38;5035725;28;20216;-79
2022/08/18 05:04:12;;;;;;;6.80;6.30;;;;;;;19.76;100.00;99904.06;5030477;28;20223;-77
2022/08/18 05:06:38;;;;;;;7.37;6.87;;;;;;;19.75;100.00;99910.22;5026443;28;20204;-78
2022/08/18 05:09:06;;;;;;;7.40;6.80;;;;;;;19.75;100.00;99909.41;5033745;28;20204;-78
2022/08/18 05:11:32;;;;;;;7.80;7.20;;;;;;;19.74;100.00;99905.91;5035885;28;20217;-78
2022/08/18 05:13:59;;;;;;;7.50;6.90;;;;;;;19.76;100.00;99903.22;5034266;28;20238;-78
2022/08/18 05:16:25;;;;;;;7.17;6.50;;;;;;;19.75;100.00;99912.03;5035073;28;20185;-77
2022/08/18 05:18:52;;;;;;;7.27;6.67;;;;;;;19.73;100.00;99909.50;5025471;28;20674;-78
2022/08/18 05:21:19;;;;;;;6.90;6.40;;;;;;;19.74;100.00;99912.94;5029065;28;20218;-78
2022/08/18 05:23:47;;;;;;;8.00;7.30;;;;;;;19.73;100.00;99903.38;5019711;28;20217;-77
2022/08/18 05:26:14;;;;;;;6.73;6.33;;;;;;;19.72;100.00;99907.78;5031191;28;20192;-78
2022/08/18 05:28:40;;;;;;;7.07;6.47;;;;;;;19.73;100.00;99898.13;5028998;28;20216;-78
2022/08/18 05:31:17;;;;;;;6.60;6.10;;;;;;;19.76;100.00;99904.06;5034108;28;20559;-78
2022/08/18 05:33:43;;;;;;;7.00;6.33;;;;;;;19.78;100.00;99899.56;5031543;28;20216;-77
2022/08/18 05:36:43;;;;;;;7.00;6.50;;;;;;;19.85;100.00;99892.22;5027456;28;20204;-78
2022/08/18 05:39:20;;;;;;;7.40;6.80;;;;;;;19.93;100.00;99883.94;5044142;28;20246;-78
2022/08/18 05:42:05;;;;;;;6.57;6.07;;;;;;;19.98;100.00;99886.31;5024614;28;20188;-78
2022/08/18 05:44:36;;;;;;;6.27;5.87;;;;;;;20.03;100.00;99886.91;5016564;28;20224;-78
2022/08/18 05:47:13;;;;;;;7.23;6.63;;;;;;;20.09;100.00;99889.22;5023377;28;20285;-79
2022/08/18 05:49:42;;;;;;;6.80;6.30;;;;;;;20.12;100.00;99886.41;5029063;28;20189;-78
2022/08/18 05:52:24;;;;;;;6.97;6.47;;;;;;;20.18;100.00;99878.19;5033901;28;20202;-79
2022/08/18 05:57:59;;;;;;;7.30;6.70;;;;;;;20.36;100.00;99876.31;5033047;28;20199;-79
2022/08/18 06:00:26;;;;;;;7.17;6.57;;;;;;;20.44;100.00;99873.25;5023377;28;20191;-78
2022/08/18 06:02:54;;;;;;;6.80;6.30;;;;;;;20.52;100.00;99873.66;5028127;28;20219;-79
2022/08/18 06:05:31;;;;;;;6.27;5.87;;;;;;;20.59;100.00;99878.56;5030489;28;20244;-78
2022/08/18 06:08:23;;;;;;;8.13;7.43;;;;;;;20.64;100.00;99879.16;5026090;28;20197;-79
2022/08/18 06:10:50;;;;;;;6.43;6.03;;;;;;;20.65;100.00;99879.03;5019207;28;20203;-79
2022/08/18 06:13:18;;;;;;;6.23;5.73;;;;;;;20.65;100.00;99872.97;5023665;28;20198;-78
2022/08/18 06:16:06;;;;;;;6.43;5.93;;;;;;;20.67;100.00;99871.09;5026633;28;20187;-77
2022/08/18 06:34:11;;;;;;;7.60;7.00;;;;;;;20.81;100.00;99888.72;5048827;23;20256;-74
2022/08/18 06:36:36;;;;;;;6.80;6.30;;;;;;;;;;4928580;23;20329;-78
2022/08/18 06:39:21;;;;;;;6.40;5.80;;;;;;;20.86;100.00;99897.19;4926263;29;20303;-76
2022/08/18 06:41:49;;;;;;;5.90;5.40;;;;;;;20.90;100.00;99895.22;4914361;29;20197;-76
2022/08/18 06:44:24;;;;;;;6.57;6.07;;;;;;;20.95;100.00;99901.06;4909097;29;20303;-76
2022/08/18 06:46:55;;;;;;;5.97;5.47;;;;;;;20.97;100.00;99897.41;4892642;29;20196;-77
2022/08/18 06:49:23;;;;;;;5.80;5.30;;;;;;;21.04;100.00;99904.94;4893671;29;20197;-77
2022/08/18 06:51:49;;;;;;;5.63;5.13;;;;;;;21.11;100.00;99901.00;4892753;29;20193;-76
2022/08/18 06:54:20;;;;;;;6.10;5.60;;;;;;;21.17;100.00;99901.50;4910603;29;20730;-77
2022/08/18 06:56:50;;;;;;;6.30;5.80;;;;;;;21.20;100.00;99907.50;4912140;29;20205;-75
2022/08/18 06:59:21;;;;;;;6.87;6.37;;;;;;;21.22;100.00;99905.63;4893983;29;20201;-75
2022/08/18 07:01:50;;;;;;;5.70;5.20;;;;;;;21.25;100.00;99910.72;4896163;29;20352;-77
2022/08/18 07:05:04;;;;;;;6.87;6.27;;;;;;;21.29;100.00;99906.97;4916833;29;20194;-76
2022/08/18 07:07:40;;;;;;;7.00;6.50;;;;;;;21.27;100.00;99920.19;4900176;29;20205;-76
2022/08/18 07:10:13;;;;;;;7.20;6.53;;;;;;;21.25;100.00;99922.06;4894486;29;20665;-79
2022/08/18 07:12:39;;;;;;;6.53;6.07;;;;;;;21.23;100.00;99926.59;4890568;29;20884;-77
2022/08/18 07:15:06;;;;;;;6.63;6.23;;;;;;;21.18;100.00;99928.66;4893735;29;20217;-78
2022/08/18 07:17:38;;;;;;;6.33;5.73;;;;;;;21.13;100.00;99936.81;4910112;29;20197;-77
2022/08/18 07:20:07;;;;;;;7.50;6.90;;;;;;;21.11;100.00;99938.69;4892429;29;20197;-77
2022/08/18 07:22:57;;;;;;;6.40;6.00;;;;;;;21.07;100.00;99946.88;4889738;29;20702;-77
2022/08/18 07:25:28;;;;;;;7.27;6.67;;;;;;;21.03;100.00;99954.06;4895311;29;20326;-77
2022/08/18 07:27:55;;;;;;;6.50;6.00;;;;;;;20.98;100.00;99954.34;4894945;29;20292;-76
2022/08/18 07:30:20;;;;;;;6.83;6.27;;;;;;;20.93;100.00;99956.41;4892806;29;20197;-76
2022/08/18 07:32:52;;;;;;;6.20;5.80;;;;;;;20.88;100.00;99952.31;4891596;29;20598;-76
2022/08/18 07:35:23;;;;;;;5.73;5.33;;;;;;;20.90;100.00;99958.34;4903666;29;20720;-77
2022/08/18 07:38:00;;;;;;;6.43;5.93;;;;;;;20.91;100.00;99949.53;4894868;29;20198;-75
2022/08/18 07:40:44;;;;;;;5.77;5.37;;;;;;;20.90;100.00;99942.56;4893313;29;20282;-78
2022/08/18 07:43:20;;;;;;;6.33;5.83;;;;;;;20.88;100.00;99942.66;4895553;29;20736;-77
2022/08/18 07:45:46;;;;;;;6.30;5.90;;;;;;;20.89;100.00;99940.88;4897670;29;20215;-77
2022/08/18 07:48:29;;;;;;;6.40;5.90;;;;;;;20.88;100.00;99944.44;4899644;29;20214;-76
2022/08/18 07:51:07;;;;;;;6.20;5.73;;;;;;;20.83;100.00;99942.06;4898006;29;20193;-77
2022/08/18 07:54:00;;;;;;;5.90;5.50;;;;;;;20.83;100.00;99947.34;4896613;29;20180;-78
2022/08/18 07:56:36;;;;;;;6.33;5.80;;;;;;;20.78;100.00;99959.91;4911252;29;20251;-78
2022/08/18 07:59:20;;;;;;;6.37;5.87;;;;;;;20.75;100.00;99957.41;4906217;29;20192;-77
2022/08/18 08:01:51;;;;;;;6.23;5.83;;;;;;;20.73;100.00;99948.78;4892717;29;20200;-78
2022/08/18 08:04:22;;;;;;;6.47;5.97;;;;;;;20.69;100.00;99948.94;4893421;29;20536;-78
2022/08/18 08:06:57;;;;;;;5.53;5.13;;;;;;;20.70;100.00;99952.44;4897012;29;20188;-77
2022/08/18 08:09:44;;;;;;;5.80;5.40;;;;;;;20.73;100.00;99943.50;4898248;29;20201;-77
2022/08/18 08:12:09;;;;;;;5.70;5.20;;;;;;;20.79;100.00;99948.47;4897051;29;20287;-76
2022/08/18 08:14:45;;;;;;;5.93;5.53;;;;;;;20.88;100.00;99947.06;4907210;29;20304;-77
2022/08/18 08:17:37;;;;;;;5.67;5.23;;;;;;;20.98;100.00;99956.13;4899751;29;20730;-76
2022/08/18 08:20:17;;;;;;;6.30;5.90;;;;;;;21.14;100.00;99951.69;4898032;29;20215;-77
2022/08/18 08:23:03;;;;;;;6.57;6.07;;;;;;;21.31;100.00;99960.38;4891426;29;20245;-77
2022/08/18 08:25:54;;;;;;;6.20;5.70;;;;;;;21.55;100.00;99954.56;4894002;29;20801;-76
2022/08/18 08:28:38;;;;;;;6.17;5.67;;;;;;;21.86;100.00;99952.72;4896177;29;20284;-76
2022/08/18 08:31:30;;;;;;;5.87;5.43;;;;;;;22.33;100.00;99948.91;4915178;29;20215;-77
2022/08/18 08:34:11;;;;;;;6.40;5.90;;;;;;;22.87;100.00;99943.75;4892073;29;20208;-76
2022/08/18 08:36:40;;;;;;;6.33;5.83;;;;;;;23.51;100.00;99940.41;4895230;29;20307;-76
2022/08/18 08:39:12;;;;;;;6.13;5.63;;;;;;;24.25;100.00;99942.31;4897117;29;20252;-75
2022/08/18 08:41:52;;;;;;;5.77;5.27;;;;;;;24.92;100.00;99941.00;4907254;29;20275;-77
2022/08/18 08:44:25;;;;;;;5.93;5.27;;;;;;;25.31;100.00;99951.34;4899204;29;20204;-76
2022/08/18 08:47:17;;;;;;;6.20;5.70;;;;;;;25.37;100.00;99949.06;4900820;29;20189;-77
2022/08/18 08:50:24;;;;;;;4.97;4.67;;;;;;;25.28;100.00;99936.50;4909288;29;20296;-76
2022/08/18 08:52:52;;;;;;;5.23;4.83;;;;;;;25.29;100.00;99937.34;4891328;29;20201;-76
2022/08/18 08:55:24;;;;;;;4.80;4.50;;;;;;;25.41;100.00;99931.97;4897203;29;20217;-76
2022/08/18 08:58:22;;;;;;;4.87;4.57;;;;;;;25.54;100.00;99936.34;4897848;29;20680;-75
2022/08/18 09:00:48;;;;;;;5.00;4.60;;;;;;;25.59;100.00;99934.16;4908036;29;20188;-75
2022/08/18 09:03:32;;;;;;;4.90;4.60;;;;;;;25.63;100.00;99924.19;4914037;29;20716;-76
2022/08/18 09:06:23;;;;;;;5.00;4.70;;;;;;;25.68;100.00;99922.84;4898505;29;20262;-76
2022/08/18 09:09:17;;;;;;;5.23;4.83;;;;;;;25.91;100.00;99911.41;4910301;29;20275;-76
2022/08/18 09:11:54;;;;;;;5.10;4.80;;;;;;;26.16;99.20;99912.97;4897326;29;20235;-76
2022/08/18 09:14:47;;;;;;;5.40;5.00;;;;;;;26.15;97.27;99911.28;4903329;29;20192;-76
2022/08/18 09:17:34;;;;;;;5.67;5.17;;;;;;;26.02;97.62;99908.72;4898815;29;20208;-76
2022/08/18 09:20:26;;;;;;;5.60;5.20;;;;;;;25.84;98.12;99895.97;4907838;29;20254;-76
2022/08/18 09:23:07;;;;;;;5.30;4.90;;;;;;;25.75;98.49;99872.88;4900962;29;20216;-77
2022/08/18 09:25:54;;;;;;;5.30;4.90;;;;;;;25.80;97.98;99880.44;4896753;29;20217;-76
2022/08/18 09:28:24;;;;;;;6.40;5.90;;;;;;;25.76;96.99;99894.91;4896797;29;20197;-75
2022/08/18 09:31:02;;;;;;;6.80;6.30;;;;;;;25.63;97.32;99906.47;4914637;29;20197;-76
2022/08/18 09:33:40;;;;;;;6.70;6.27;;;;;;;25.34;97.11;99921.94;4893518;29;20192;-78
2022/08/18 09:36:51;;;;;;;6.40;6.00;;;;;;;25.01;98.34;99927.06;4898025;29;20618;-76
2022/08/18 09:42:27;;;;;;;7.30;6.77;;;;;;;24.56;100.00;99925.06;4901935;29;20210;-76
2022/08/18 09:44:54;;;;;;;6.90;6.40;;;;;;;24.46;100.00;99922.25;4896300;29;20591;-76
2022/08/18 09:47:19;;;;;;;7.00;6.50;;;;;;;24.55;100.00;99914.56;4896625;29;20281;-76
2022/08/18 09:49:53;;;;;;;7.00;6.40;;;;;;;24.72;100.00;99923.97;4900706;29;20193;-75
2022/08/18 09:52:21;;;;;;;6.97;6.47;;;;;;;24.92;100.00;99930.41;4900035;29;20244;-75
2022/08/18 09:54:58;;;;;;;7.07;6.47;;;;;;;25.10;99.77;99928.16;4895253;29;20216;-76
2022/08/18 09:57:32;;;;;;;7.07;6.57;;;;;;;25.15;99.66;99927.81;4897584;29;20196;-77
2022/08/18 10:00:06;;;;;;;6.87;6.37;;;;;;;25.13;99.69;99933.22;4916228;29;20185;-76
2022/08/18 10:02:31;;;;;;;7.03;6.53;;;;;;;25.06;100.00;99942.59;4893658;29;20246;-78
2022/08/18 10:05:18;;;;;;;7.80;7.20;;;;;;;25.04;100.00;99939.19;4901748;29;20252;-77
2022/08/18 10:07:43;;;;;;;7.10;6.60;;;;;;;25.05;100.00;99944.41;4908595;29;20696;-77
2022/08/18 10:10:30;;;;;;;7.27;6.77;;;;;;;25.11;100.00;99958.97;4913986;29;20204;-76
2022/08/18 10:13:14;;;;;;;7.03;6.50;;;;;;;25.15;100.00;99954.28;4899873;29;20199;-76
2022/08/18 10:15:57;;;;;;;7.97;7.37;;;;;;;25.17;100.00;99952.38;4900697;29;20220;-76
2022/08/18 10:18:32;;;;;;;7.73;7.13;;;;;;;25.14;99.77;99947.31;4897426;29;20196;-78
2022/08/18 10:21:02;;;;;;;7.63;7.13;;;;;;;25.18;98.91;99935.53;4919406;29;20557;-77
2022/08/18 10:23:49;;;;;;;7.97;7.47;;;;;;;25.24;97.75;99920.00;4913197;29;20597;-76
2022/08/18 10:26:30;;;;;;;8.20;7.60;;;;;;;25.37;97.16;99904.03;4919335;29;20254;-76
2022/08/18 10:28:58;;;;;;;8.40;7.80;;;;;;;25.64;95.42;99894.91;4896509;29;20193;-76
2022/08/18 10:31:24;;;;;;;9.07;8.37;;;;;;;25.90;94.50;99877.91;4914431;29;20220;-77
2022/08/18 10:34:01;;;;;;;9.43;8.70;;;;;;;26.13;93.43;99884.03;4902798;29;20192;-76
2022/08/18 10:36:49;;;;;;;8.43;7.83;;;;;;;26.22;92.68;99885.94;4891974;29;20998;-76
2022/08/18 10:39:18;;;;;;;8.90;8.30;;;;;;;26.35;92.95;99884.91;4898763;29;20188;-76
2022/08/18 10:41:55;;;;;;;8.30;7.80;;;;;;;26.55;92.12;99875.31;4892006;29;20317;-76
2022/08/18 10:44:22;;;;;;;9.27;8.47;;;;;;;26.60;91.31;99858.06;4892221;29;20284;-76
2022/08/18 10:46:48;;;;;;;9.57;8.87;;;;;;;26.66;91.36;99866.47;4892361;29;20257;-76
2022/08/18 10:49:21;;;;;;;9.57;8.87;;;;;;;26.68;91.02;99864.53;4892770;29;20204;-76
2022/08/18 10:51:47;;;;;;;9.60;8.87;;;;;;;26.62;91.01;99868.53;4891199;29;20616;-74
2022/08/18 10:54:50;;;;;;;11.70;10.80;;;;;;;26.51;90.71;99864.13;4902582;29;20275;-77
2022/08/18 10:57:26;;;;;;;10.30;9.60;;;;;;;26.31;91.08;99860.47;4908256;29;20419;-77
2022/08/18 11:00:07;;;;;;;9.57;8.87;;;;;;;26.31;91.57;99850.72;4895232;29;20572;-78
2022/08/18 11:02:57;;;;;;;10.40;9.70;;;;;;;26.43;90.73;99835.56;4891953;29;20925;-77
2022/08/18 11:05:25;;;;;;;10.80;10.00;;;;;;;26.96;89.79;99836.53;4895407;29;20751;-76
2022/08/18 11:07:59;;;;;;;12.00;11.10;;;;;;;27.53;87.93;99836.09;4892756;29;20848;-75
2022/08/18 11:10:47;;;;;;;13.83;12.83;;;;;;;27.70;85.57;99847.91;4887820;29;20197;-76
2022/08/18 11:13:37;;;;;;;14.80;13.70;;;;;;;27.71;85.04;99854.06;4906854;29;20225;-76
2022/08/18 11:16:14;;;;;;;14.57;13.57;;;;;;;27.84;84.35;99833.41;4910894;29;20212;-77
2022/08/18 11:18:43;;;;;;;13.23;12.17;;;;;;;28.14;83.78;99844.94;4913086;29;20371;-75
2022/08/18 11:21:22;;;;;;;15.63;14.40;;;;;;;27.80;82.75;99847.94;4893234;29;21055;-77
2022/08/18 11:24:22;;;;;;;14.40;13.30;;;;;;;27.49;83.46;99854.16;4888416;29;20216;-77
2022/08/18 11:27:03;;;;;;;14.47;13.40;;;;;;;27.36;84.34;99850.84;4899909;29;20212;-76
2022/08/18 11:29:35;;;;;;;15.20;14.00;;;;;;;27.34;85.23;99847.47;4900964;29;20215;-77
2022/08/18 11:32:15;;;;;;;13.67;12.57;;;;;;;27.58;84.92;99847.19;4902382;29;20184;-76
2022/08/18 11:34:50;;;;;;;14.17;13.07;;;;;;;27.68;84.29;99836.59;4902678;29;20595;-76
2022/08/18 11:37:37;;;;;;;14.77;13.67;;;;;;;27.47;84.28;99834.84;4911115;29;20664;-76
2022/08/18 11:40:06;;;;;;;14.70;13.60;;;;;;;27.48;84.65;99833.88;4892757;29;20192;-77
2022/08/18 11:42:37;;;;;;;13.70;12.70;;;;;;;27.52;84.73;99837.09;4905865;29;20587;-77
2022/08/18 11:45:16;;;;;;;13.73;12.73;;;;;;;27.48;84.79;99831.22;4892393;29;20217;-77
2022/08/18 11:48:01;;;;;;;14.73;13.50;;;;;;;27.29;84.08;99834.59;4901384;29;20308;-76
2022/08/18 11:50:29;;;;;;;14.13;12.93;;;;;;;27.06;85.79;99833.94;4897805;29;20197;-76
2022/08/18 11:52:55;;;;;;;14.53;13.43;;;;;;;26.73;85.84;99827.84;4899473;29;20209;-76
2022/08/18 11:55:34;;;;;;;15.63;14.40;;;;;;;26.66;85.75;99827.50;4897939;29;20881;-76
2022/08/18 11:58:03;;;;;;;13.50;12.50;;;;;;;26.57;85.67;99822.97;4914072;29;20284;-76
2022/08/18 12:00:38;;;;;;;13.20;12.30;;;;;;;26.72;85.08;99813.72;4910031;29;20220;-76
2022/08/18 12:03:07;;;;;;;13.93;12.83;;;;;;;26.82;85.04;99821.75;4897382;29;20478;-77
2022/08/18 12:05:44;;;;;;;13.50;12.60;;;;;;;27.06;84.58;99810.03;4910386;29;20204;-76
2022/08/18 12:08:20;;;;;;;13.13;12.20;;;;;;;27.21;84.65;99805.19;4899881;29;20283;-77
2022/08/18 12:10:47;;;;;;;12.93;11.93;;;;;;;27.27;84.54;99804.66;4903551;29;20180;-77
2022/08/18 12:13:22;;;;;;;15.20;14.00;;;;;;;26.65;85.99;99811.69;4897960;29;20196;-76
2022/08/18 12:16:08;;;;;;;14.37;12.97;;;;;;;26.52;86.61;99803.94;4895029;29;20217;-76
2022/08/18 12:18:33;;;;;;;13.30;12.30;;;;;;;26.62;86.17;99792.41;4896499;29;20723;-77
2022/08/18 12:21:00;;;;;;;11.07;10.33;;;;;;;26.75;86.05;99786.09;4894082;29;20294;-75
2022/08/18 12:23:26;;;;;;;13.93;12.93;;;;;;;26.66;85.97;99786.84;4889767;29;20213;-76